UTST

Details ICAO UTST (TMJ)
Name TERMEZ
Region Tajikistan, Turkmenistan and Uzbekistan
Timezone Asia/Samarkand (UTC+5.0)
Plans Departing 5
Arriving 10
Stats Elevation 1,027 ft / 313 m (AMSL)
Location 37.286667° 67.309167°
Runways 1
Magnetic Variation 4.145° E
Sunrise 2017-12-18 02:40:44 UTC / 2017-12-18 07:40:44 Local
Sunset 2017-12-18 12:16:33 UTC / 2017-12-18 17:16:33 Local
Advertisement - Login to hide

Runways

ID Width Length Bearing (true) Bearing (mag) Surface Threshold Offset Overrun Length
07 138 ft / 42 m 9,510 ft / 2,899 m 75.17° 71.02° Concrete 0 ft / 0 m 164 ft / 50 m
25 138 ft / 42 m 9,510 ft / 2,899 m 255.19° 251.04° Concrete 0 ft / 0 m 164 ft / 50 m

Approach Navaids

Runway Type Ident Frequency Range Bearing (true) Bearing (mag) Slope Elevation
25 Localiser INO 110.30 MHz 18 nm / 33 km 254.33° 250.18° - 1,027 ft / 313 m (AMSL)
25 Glidescope INO 110.30 MHz 10 nm / 19 km 255.18° 251.03° 2.40° 1,027 ft / 313 m (AMSL)

Map

Weather


0- 5 10 15 20 25 30 35+ Temperature / ° C

Clouds and Precipitation
Forecast for 2017-12-18 12:00 UTC. Updated 2 hours ago

Ground ~20,000 ft ~40,000 ft Winds

METAR

UTST 180900Z 10004KT 050V140 8000 NSC 12/M01 Q1026 R88/CLRD70 NOSIG

TAF

Not found

Frequencies

Tower 118.60 MHz TWR
Warning: Do not use this data for real-world aviation or navigation. No guarantee of current accuracy is given.